Time;durP1;ratioP1;P1;durP2;ratioP2;P2;SDS_P1;SDS_P2;PMS_P1;PMS_P2;Temp;Humidity;BMP_temperature;BMP_pressure;BME280_temperature;BME280_humidity;BME280_pressure;Samples;Min_cycle;Max_cycle;Signal;HPM_P1;HPM_P2
2022/01/05 00:02:27;;;;;;;;;;;;;;;2.46;100.00;100026.47;5057980;28;19921;-82
2022/01/05 00:04:53;;;;;;;;;;;;;;;2.41;100.00;100039.19;5057992;28;20494;-83
2022/01/05 00:07:18;;;;;;;;;;;;;;;2.39;100.00;100026.91;5057799;28;19921;-79
2022/01/05 00:09:43;;;;;;;;;;;;;;;2.40;100.00;100031.31;5057746;28;19921;-84
2022/01/05 00:12:09;;;;;;;;;;;;;;;2.49;100.00;100026.63;5057665;28;19925;-80
2022/01/05 00:14:35;;;;;;;;;;;;;;;2.47;100.00;100039.53;5057270;28;20336;-83
2022/01/05 00:17:00;;;;;;;;;;;;;;;2.44;100.00;100025.47;5058733;28;19928;-84
2022/01/05 00:19:27;;;;;;;;;;;;;;;2.46;100.00;100022.16;5040999;28;19936;-82
2022/01/05 00:21:53;;;;;;;;;;;;;;;2.53;100.00;100032.88;5058032;28;19959;-81
2022/01/05 00:24:18;;;;;;;;;;;;;;;2.63;100.00;100029.97;5057583;28;19921;-84
2022/01/05 00:26:44;;;;;;;;;;;;;;;2.65;100.00;100031.84;5057019;28;19966;-81
2022/01/05 00:29:09;;;;;;;;;;;;;;;2.73;100.00;100028.78;5057256;28;19956;-82
2022/01/05 00:31:34;;;;;;;;;;;;;;;2.84;100.00;100038.94;5057206;28;19925;-81
2022/01/05 00:33:59;;;;;;;;;;;;;;;2.92;100.00;100033.25;5058408;28;19931;-81
2022/01/05 00:36:24;;;;;;;;;;;;;;;2.85;100.00;100032.91;5056897;28;19917;-83
2022/01/05 00:38:50;;;;;;;;;;;;;;;2.80;100.00;100033.50;5056775;28;19925;-83
2022/01/05 00:41:15;;;;;;;;;;;;;;;2.70;100.00;100034.69;5058135;28;19991;-81
2022/01/05 00:43:41;;;;;;;;;;;;;;;2.66;100.00;100036.22;5057255;28;19920;-84
2022/01/05 00:46:06;;;;;;;;;;;;;;;2.58;100.00;100032.34;5057025;28;19951;-82
2022/01/05 00:48:34;;;;;;;;;;;;;;;2.55;100.00;100039.97;5057274;28;19925;-83
2022/01/05 00:51:02;;;;;;;;;;;;;;;2.42;100.00;100029.69;5057707;28;19925;-82
2022/01/05 00:53:31;;;;;;;;;;;;;;;2.39;100.00;100034.72;5056341;28;19920;-84
2022/01/05 00:55:56;;;;;;;;;;;;;;;2.44;100.00;100033.25;5056935;28;19921;-86
2022/01/05 00:58:22;;;;;;;;;;;;;;;2.38;100.00;100039.03;5056342;28;19916;-84
2022/01/05 01:00:47;;;;;;;;;;;;;;;2.33;100.00;100030.97;5057442;28;19925;-82
2022/01/05 01:03:13;;;;;;;;;;;;;;;2.28;100.00;100041.91;5056020;28;19924;-84
2022/01/05 01:05:38;;;;;;;;;;;;;;;2.20;100.00;100038.00;5055559;28;19921;-83
2022/01/05 01:08:04;;;;;;;;;;;;;;;2.08;100.00;100048.56;5057488;28;19921;-83
2022/01/05 01:10:29;;;;;;;;;;;;;;;1.97;100.00;100053.16;5039288;28;19960;-82
2022/01/05 01:12:54;;;;;;;;;;;;;;;1.93;100.00;100046.00;5056044;28;19932;-84
2022/01/05 01:15:20;;;;;;;;;;;;;;;1.95;100.00;100053.06;5055895;28;19921;-82
2022/01/05 01:17:45;;;;;;;;;;;;;;;1.91;100.00;100040.72;5055877;28;19920;-81
2022/01/05 01:20:10;;;;;;;;;;;;;;;1.94;100.00;100047.78;5056277;28;20007;-84
2022/01/05 01:22:37;;;;;;;;;;;;;;;1.92;100.00;100046.81;5055710;28;19925;-84
2022/01/05 01:25:03;;;;;;;;;;;;;;;1.88;100.00;100045.75;5056967;28;19986;-83
2022/01/05 01:27:28;;;;;;;;;;;;;;;1.94;100.00;100045.19;5056042;28;19920;-81
2022/01/05 01:29:53;;;;;;;;;;;;;;;2.02;100.00;100053.41;5055631;28;20341;-83
2022/01/05 01:32:22;;;;;;;;;;;;;;;1.89;100.00;100046.63;5055534;28;19920;-82
2022/01/05 01:34:47;;;;;;;;;;;;;;;1.93;100.00;100053.81;5056798;28;19920;-83
2022/01/05 01:37:14;;;;;;;;;;;;;;;1.87;100.00;100054.34;5057642;28;20078;-82
2022/01/05 01:39:39;;;;;;;;;;;;;;;1.77;100.00;100055.50;5054249;28;19921;-83
2022/01/05 01:42:05;;;;;;;;;;;;;;;1.75;100.00;100054.50;5055218;28;19921;-81
2022/01/05 01:44:30;;;;;;;;;;;;;;;1.77;100.00;100049.41;5055543;28;20264;-83
2022/01/05 01:46:56;;;;;;;;;;;;;;;1.77;100.00;100047.72;5055385;28;20015;-80
2022/01/05 01:49:21;;;;;;;;;;;;;;;1.68;100.00;100043.66;5056470;28;19925;-80
2022/01/05 01:51:46;;;;;;;;;;;;;;;1.62;100.00;100049.41;5055083;28;19928;-84
2022/01/05 01:54:12;;;;;;;;;;;;;;;1.64;100.00;100055.59;5055462;28;19943;-83
2022/01/05 01:56:38;;;;;;;;;;;;;;;1.65;100.00;100051.28;5054814;28;20214;-81
2022/01/05 01:59:04;;;;;;;;;;;;;;;1.68;100.00;100057.56;5055871;28;19928;-80
2022/01/05 02:01:29;;;;;;;;;;;;;;;1.64;100.00;100059.88;5056021;28;19978;-80
2022/01/05 02:03:56;;;;;;;;;;;;;;;1.77;100.00;100052.91;5056326;28;19921;-80
2022/01/05 02:06:21;;;;;;;;;;;;;;;1.81;100.00;100055.69;5056291;28;20604;-84
2022/01/05 02:08:46;;;;;;;;;;;;;;;1.87;100.00;100061.22;5054934;28;19928;-80
2022/01/05 02:11:13;;;;;;;;;;;;;;;1.81;100.00;100071.25;5055285;28;19993;-84
2022/01/05 02:13:39;;;;;;;;;;;;;;;1.97;100.00;100069.66;5054533;28;20135;-81
2022/01/05 02:16:04;;;;;;;;;;;;;;;2.02;100.00;100075.09;5054748;28;20043;-84
2022/01/05 02:21:02;;;;;;;;;;;;;;;2.28;100.00;100060.97;5055812;28;19928;-80
2022/01/05 02:23:30;;;;;;;;;;;;;;;2.34;100.00;100065.63;5054873;28;19960;-83
2022/01/05 02:25:55;;;;;;;;;;;;;;;2.38;100.00;100064.09;5056124;28;19928;-82
2022/01/05 02:28:20;;;;;;;;;;;;;;;2.39;100.00;100065.91;5055568;28;19925;-79
2022/01/05 02:30:51;;;;;;;;;;;;;;;2.44;100.00;100067.03;5054491;28;19921;-80
2022/01/05 02:33:18;;;;;;;;;;;;;;;2.41;100.00;100070.38;5054659;28;19921;-80
2022/01/05 02:35:44;;;;;;;;;;;;;;;2.39;100.00;100077.16;5054575;28;19925;-80
2022/01/05 02:38:09;;;;;;;;;;;;;;;2.43;100.00;100071.34;5054023;28;20481;-81
2022/01/05 02:40:34;;;;;;;;;;;;;;;2.47;100.00;100070.72;5053723;28;19952;-81
2022/01/05 02:42:59;;;;;;;;;;;;;;;2.46;100.00;100074.13;5054412;28;19928;-81
2022/01/05 02:45:25;;;;;;;;;;;;;;;2.51;100.00;100061.38;5053936;28;19921;-80
2022/01/05 02:47:50;;;;;;;;;;;;;;;2.57;100.00;100072.13;5053987;28;19964;-80
2022/01/05 02:50:16;;;;;;;;;;;;;;;2.53;100.00;100064.06;5053886;28;19923;-82
2022/01/05 02:52:52;;;;;;;;;;;;;;;2.49;100.00;100063.00;5053942;28;19925;-81
2022/01/05 02:55:17;;;;;;;;;;;;;;;2.56;100.00;100074.63;5054049;28;19921;-78
2022/01/05 02:57:44;;;;;;;;;;;;;;;2.51;100.00;100074.38;5053969;28;20437;-80
2022/01/05 03:00:11;;;;;;;;;;;;;;;2.53;100.00;100070.16;5037953;28;19924;-79
2022/01/05 03:02:38;;;;;;;;;;;;;;;2.60;100.00;100071.41;5054001;28;19920;-85
2022/01/05 03:05:04;;;;;;;;;;;;;;;2.53;100.00;100077.94;5054309;28;20361;-83
2022/01/05 03:07:29;;;;;;;;;;;;;;;2.55;100.00;100075.44;5054912;28;19982;-84
2022/01/05 03:09:55;;;;;;;;;;;;;;;2.54;100.00;100081.47;5053487;28;19921;-80
2022/01/05 03:12:20;;;;;;;;;;;;;;;2.47;100.00;100088.00;5053696;28;20628;-82
2022/01/05 03:14:45;;;;;;;;;;;;;;;2.56;100.00;100085.91;5053997;28;19921;-80
2022/01/05 03:17:10;;;;;;;;;;;;;;;2.55;100.00;100091.03;5054852;28;19920;-81
2022/01/05 03:19:36;;;;;;;;;;;;;;;2.50;100.00;100096.88;5054238;28;19951;-81
2022/01/05 03:22:01;;;;;;;;;;;;;;;2.48;100.00;100097.59;5054213;28;19969;-80
2022/01/05 03:24:26;;;;;;;;;;;;;;;2.44;100.00;100095.63;5053098;28;19928;-83
2022/01/05 03:26:51;;;;;;;;;;;;;;;2.40;100.00;100101.47;5053293;28;20155;-81
2022/01/05 03:29:17;;;;;;;;;;;;;;;2.40;100.00;100110.16;5054063;28;19928;-80
2022/01/05 03:31:42;;;;;;;;;;;;;;;2.47;100.00;100095.78;5036691;28;20392;-80
2022/01/05 03:34:08;;;;;;;;;;;;;;;2.50;100.00;100106.34;5053574;28;19921;-80
2022/01/05 03:36:34;;;;;;;;;;;;;;;2.56;100.00;100103.22;5053780;28;19921;-81
2022/01/05 03:38:59;;;;;;;;;;;;;;;2.59;100.00;100099.06;5053617;28;19946;-82
2022/01/05 03:41:24;;;;;;;;;;;;;;;2.71;100.00;100108.41;5054000;28;20383;-80
2022/01/05 03:43:52;;;;;;;;;;;;;;;2.78;100.00;100105.31;5053438;28;19924;-79
2022/01/05 03:46:18;;;;;;;;;;;;;;;2.82;100.00;100115.97;5038728;28;19932;-81
2022/01/05 03:48:43;;;;;;;;;;;;;;;2.88;100.00;100116.28;5053372;28;19921;-83
2022/01/05 03:51:09;;;;;;;;;;;;;;;2.95;100.00;100111.44;5055196;28;19925;-83
2022/01/05 03:53:34;;;;;;;;;;;;;;;2.98;100.00;100122.00;5054075;28;19928;-82
2022/01/05 03:56:01;;;;;;;;;;;;;;;2.99;100.00;100116.88;5053512;28;20003;-84
2022/01/05 03:58:27;;;;;;;;;;;;;;;2.98;100.00;100122.00;5052519;28;20078;-82
2022/01/05 04:00:52;;;;;;;;;;;;;;;3.00;100.00;100110.88;5054490;28;20379;-82
2022/01/05 04:03:21;;;;;;;;;;;;;;;3.01;100.00;100106.56;5053904;28;19924;-83
2022/01/05 04:05:46;;;;;;;;;;;;;;;3.08;100.00;100116.50;5053844;28;19921;-81
2022/01/05 04:08:11;;;;;;;;;;;;;;;3.12;100.00;100110.63;5053563;28;20019;-83
2022/01/05 04:10:36;;;;;;;;;;;;;;;3.21;100.00;100120.66;5057114;28;19968;-81
2022/01/05 04:13:05;;;;;;;;;;;;;;;3.23;100.00;100125.13;5053493;28;19964;-85
2022/01/05 04:15:30;;;;;;;;;;;;;;;3.22;100.00;100123.34;5053332;28;19963;-83
2022/01/05 04:17:55;;;;;;;;;;;;;;;3.24;100.00;100129.50;5053367;28;19921;-83
2022/01/05 04:20:22;;;;;;;;;;;;;;;3.28;100.00;100130.59;5053727;28;20368;-82
2022/01/05 04:22:51;;;;;;;;;;;;;;;3.29;100.00;100132.34;5052990;28;19928;-82
2022/01/05 04:25:17;;;;;;;;;;;;;;;3.27;100.00;100136.59;5053667;28;19921;-83
2022/01/05 04:27:42;;;;;;;;;;;;;;;3.27;100.00;100133.09;5052618;28;19927;-80
2022/01/05 04:30:08;;;;;;;;;;;;;;;3.27;100.00;100138.31;5053360;28;19927;-83
2022/01/05 04:32:38;;;;;;;;;;;;;;;3.35;100.00;100144.81;5053591;28;20260;-81
2022/01/05 04:35:04;;;;;;;;;;;;;;;3.38;100.00;100139.78;5053867;28;19921;-81
2022/01/05 04:37:31;;;;;;;;;;;;;;;3.36;100.00;100147.50;5056492;28;19928;-83
2022/01/05 04:39:57;;;;;;;;;;;;;;;3.33;100.00;100139.53;5056873;28;19960;-82
2022/01/05 04:42:22;;;;;;;;;;;;;;;3.27;100.00;100139.19;5058197;28;20318;-80
2022/01/05 04:44:47;;;;;;;;;;;;;;;3.23;100.00;100134.63;5058168;28;20311;-83
2022/01/05 04:47:13;;;;;;;;;;;;;;;3.26;100.00;100133.91;5057965;28;20307;-80
2022/01/05 04:49:38;;;;;;;;;;;;;;;3.22;100.00;100122.44;5041090;28;20365;-84
2022/01/05 04:52:04;;;;;;;;;;;;;;;3.25;100.00;100133.03;5057483;28;20695;-83
2022/01/05 04:54:29;;;;;;;;;;;;;;;3.29;100.00;100129.75;5056993;28;19928;-81
2022/01/05 04:56:54;;;;;;;;;;;;;;;3.29;100.00;100126.25;5056376;28;19920;-81
2022/01/05 04:59:20;;;;;;;;;;;;;;;3.31;100.00;100145.44;5057232;28;20607;-81
2022/01/05 05:01:45;;;;;;;;;;;;;;;3.32;100.00;100137.72;5057322;28;19920;-84
2022/01/05 05:04:10;;;;;;;;;;;;;;;3.32;100.00;100148.13;5056908;28;19928;-83
2022/01/05 05:06:35;;;;;;;;;;;;;;;3.31;100.00;100146.34;5057889;28;20015;-85
2022/01/05 05:09:01;;;;;;;;;;;;;;;3.34;100.00;100151.72;5057735;28;20034;-82
2022/01/05 05:11:26;;;;;;;;;;;;;;;3.35;100.00;100155.22;5057274;28;19927;-81
2022/01/05 05:13:57;;;;;;;;;;;;;;;3.34;100.00;100156.94;5056505;28;19929;-80
2022/01/05 05:16:23;;;;;;;;;;;;;;;3.34;100.00;100153.41;5056402;28;19921;-80
2022/01/05 05:18:48;;;;;;;;;;;;;;;3.21;100.00;100155.34;5057120;28;20016;-81
2022/01/05 05:21:13;;;;;;;;;;;;;;;3.13;100.00;100163.56;5056719;28;19920;-80
2022/01/05 05:23:50;;;;;;;;;;;;;;;3.11;100.00;100166.09;5055812;28;19916;-82
2022/01/05 05:26:17;;;;;;;;;;;;;;;3.19;100.00;100162.19;5056857;28;20327;-79
2022/01/05 05:28:43;;;;;;;;;;;;;;;3.24;100.00;100168.53;5056192;28;19917;-79
2022/01/05 05:31:08;;;;;;;;;;;;;;;3.27;100.00;100166.94;5039546;28;19978;-80
2022/01/05 05:33:41;;;;;;;;;;;;;;;3.35;100.00;100170.84;5039911;28;19925;-79
2022/01/05 05:36:06;;;;;;;;;;;;;;;3.32;100.00;100181.06;5038964;28;19929;-80
2022/01/05 05:38:31;;;;;;;;;;;;;;;3.32;100.00;100158.53;5057009;28;20272;-79
2022/01/05 05:40:57;;;;;;;;;;;;;;;3.36;100.00;100170.91;5056710;28;19927;-80
2022/01/05 05:43:28;;;;;;;;;;;;;;;3.36;100.00;100167.44;5056889;28;19928;-80
2022/01/05 05:45:55;;;;;;;;;;;;;;;3.34;100.00;100175.16;5055911;28;19978;-80
2022/01/05 05:48:22;;;;;;;;;;;;;;;3.38;100.00;100164.06;5055859;28;19960;-81
2022/01/05 05:50:50;;;;;;;;;;;;;;;3.36;100.00;100154.41;5056649;28;19979;-81
2022/01/05 05:53:23;;;;;;;;;;;;;;;3.32;100.00;100152.44;5055966;28;19921;-82
2022/01/05 05:55:48;;;;;;;;;;;;;;;3.23;100.00;100161.56;5056931;28;20343;-80
2022/01/05 05:58:13;;;;;;;;;;;;;;;3.20;100.00;100157.88;5056417;28;19927;-81
2022/01/05 06:00:40;;;;;;;;;;;;;;;3.15;100.00;100159.34;5056419;28;20367;-81
2022/01/05 06:03:07;;;;;;;;;;;;;;;3.09;100.00;100157.28;5056699;28;19921;-82
2022/01/05 06:05:35;;;;;;;;;;;;;;;3.11;100.00;100163.50;5055568;28;19932;-81
2022/01/05 06:08:02;;;;;;;;;;;;;;;3.13;100.00;100164.47;5058798;28;19927;-82
2022/01/05 06:10:47;;;;;;;;;;;;;;;3.21;100.00;100170.97;5057641;28;19921;-80
2022/01/05 06:13:18;;;;;;;;;;;;;;;3.30;100.00;100174.91;5055327;28;19921;-84
2022/01/05 06:15:43;;;;;;;;;;;;;;;3.36;100.00;100167.44;5056124;28;19917;-86
2022/01/05 06:18:08;;;;;;;;;;;;;;;3.43;100.00;100169.53;5040458;28;20007;-82
2022/01/05 06:20:34;;;;;;;;;;;;;;;3.50;100.00;100171.66;5056361;28;19923;-80
2022/01/05 06:23:09;;;;;;;;;;;;;;;3.56;100.00;100171.97;5056203;28;19925;-81
2022/01/05 06:25:36;;;;;;;;;;;;;;;3.61;100.00;100180.03;5054844;28;20009;-81
2022/01/05 06:28:02;;;;;;;;;;;;;;;3.65;100.00;100175.88;5057774;28;20336;-84
2022/01/05 06:30:29;;;;;;;;;;;;;;;3.63;100.00;100173.19;5058341;28;19921;-84
2022/01/05 06:32:55;;;;;;;;;;;;;;;3.69;100.00;100183.06;5056411;28;19928;-83
2022/01/05 06:35:24;;;;;;;;;;;;;;;3.70;100.00;100195.28;5057906;28;19921;-80
2022/01/05 06:37:50;;;;;;;;;;;;;;;3.70;100.00;100200.47;5056610;28;20349;-84
2022/01/05 06:40:17;;;;;;;;;;;;;;;3.74;100.00;100194.59;5055928;28;20003;-83
2022/01/05 06:42:45;;;;;;;;;;;;;;;3.77;100.00;100189.53;5039503;28;20418;-80
2022/01/05 06:45:10;;;;;;;;;;;;;;;3.78;100.00;100188.75;5055966;28;19968;-83
2022/01/05 06:47:36;;;;;;;;;;;;;;;3.77;100.00;100192.16;5061556;28;19928;-82
2022/01/05 06:50:03;;;;;;;;;;;;;;;3.75;100.00;100199.88;5058485;28;20377;-82
2022/01/05 06:52:31;;;;;;;;;;;;;;;3.75;100.00;100202.50;5055246;28;19920;-85
2022/01/05 06:54:58;;;;;;;;;;;;;;;3.72;100.00;100201.44;5057792;28;19980;-84
2022/01/05 06:57:28;;;;;;;;;;;;;;;3.71;100.00;100203.16;5039837;28;19931;-83
2022/01/05 06:59:54;;;;;;;;;;;;;;;3.68;100.00;100196.88;5059092;28;19931;-81
2022/01/05 07:02:20;;;;;;;;;;;;;;;3.67;100.00;100205.53;5059052;28;20020;-81
2022/01/05 07:04:45;;;;;;;;;;;;;;;3.70;100.00;100206.56;5059859;28;19952;-80
2022/01/05 07:07:14;;;;;;;;;;;;;;;3.66;100.00;100202.00;5042709;28;20269;-81
2022/01/05 07:09:39;;;;;;;;;;;;;;;3.67;100.00;100210.72;5057569;28;20019;-82
2022/01/05 07:12:15;;;;;;;;;;;;;;;3.71;100.00;100210.97;5038434;28;20376;-82
2022/01/05 07:14:44;;;;;;;;;;;;;;;3.70;100.00;100213.50;5056578;28;20361;-83
2022/01/05 07:17:10;;;;;;;;;;;;;;;3.66;100.00;100203.72;5059580;28;19924;-82
2022/01/05 07:19:36;;;;;;;;;;;;;;;3.63;100.00;100225.25;5060358;28;19921;-80
2022/01/05 07:22:05;;;;;;;;;;;;;;;3.63;100.00;100229.59;5043812;28;19928;-82
2022/01/05 07:24:31;;;;;;;;;;;;;;;3.65;100.00;100244.50;5061879;28;20244;-84
2022/01/05 07:26:56;;;;;;;;;;;;;;;3.76;100.00;100248.56;5058566;28;19921;-80
2022/01/05 07:29:23;;;;;;;;;;;;;;;3.77;100.00;100252.94;5038101;28;19935;-81
2022/01/05 07:31:48;;;;;;;;;;;;;;;3.79;100.00;100242.59;5056052;28;19925;-81
2022/01/05 07:34:16;;;;;;;;;;;;;;;3.83;100.00;100239.34;5054308;28;19968;-80
2022/01/05 07:36:41;;;;;;;;;;;;;;;3.87;100.00;100246.53;5050677;28;19920;-81
2022/01/05 07:39:07;;;;;;;;;;;;;;;3.88;100.00;100253.50;5040182;28;19928;-84
2022/01/05 07:41:34;;;;;;;;;;;;;;;3.89;100.00;100247.50;5056524;28;19925;-84
2022/01/05 07:44:00;;;;;;;;;;;;;;;3.93;100.00;100248.53;5037336;28;19931;-83
2022/01/05 07:46:26;;;;;;;;;;;;;;;3.88;100.00;100258.72;5034981;28;20477;-83
2022/01/05 07:48:52;;;;;;;;;;;;;;;3.90;100.00;100264.00;5051599;28;20366;-82
2022/01/05 07:51:17;;;;;;;;;;;;;;;3.97;100.00;100268.75;5035480;28;19989;-83
2022/01/05 07:53:44;;;;;;;;;;;;;;;3.98;100.00;100262.72;5050314;28;19921;-82
2022/01/05 07:56:09;;;;;;;;;;;;;;;4.04;100.00;100264.75;5050299;28;20004;-82
2022/01/05 07:58:35;;;;;;;;;;;;;;;4.08;100.00;100266.72;5033414;28;19956;-83
2022/01/05 08:01:00;;;;;;;;;;;;;;;4.07;100.00;100271.03;5049328;28;19956;-83
2022/01/05 08:03:25;;;;;;;;;;;;;;;4.12;100.00;100281.69;5051062;28;19991;-83
2022/01/05 08:05:51;;;;;;;;;;;;;;;4.16;100.00;100277.53;5034735;28;19929;-84
2022/01/05 08:08:17;;;;;;;;;;;;;;;4.19;100.00;100285.50;5051049;28;19964;-83
2022/01/05 08:10:45;;;;;;;;;;;;;;;4.21;100.00;100291.69;5032917;28;19925;-84
2022/01/05 08:13:21;;;;;;;;;;;;;;;4.19;100.00;100289.00;5040212;28;19928;-83
2022/01/05 08:15:46;;;;;;;;;;;;;;;4.18;100.00;100295.06;5040095;28;20376;-84
2022/01/05 08:18:12;;;;;;;;;;;;;;;4.20;100.00;100297.75;5039848;28;19979;-84
2022/01/05 08:20:40;;;;;;;;;;;;;;;4.24;100.00;100297.97;5038677;28;19920;-84
2022/01/05 08:23:06;;;;;;;;;;;;;;;4.24;100.00;100297.97;5057939;28;19960;-84
2022/01/05 08:25:32;;;;;;;;;;;;;;;4.19;100.00;100299.44;5062013;28;19925;-81
2022/01/05 08:27:57;;;;;;;;;;;;;;;4.17;100.00;100300.19;5058560;28;20016;-85
2022/01/05 08:30:24;;;;;;;;;;;;;;;4.13;100.00;100322.56;5059053;28;19921;-84
2022/01/05 08:32:53;;;;;;;;;;;;;;;4.08;100.00;100326.63;5065717;28;19920;-83
2022/01/05 08:35:22;;;;;;;;;;;;;;;4.08;100.00;100318.81;5061111;28;19920;-84
2022/01/05 08:37:51;;;;;;;;;;;;;;;4.05;100.00;100323.88;5059489;28;20326;-84
2022/01/05 08:40:20;;;;;;;;;;;;;;;3.99;100.00;100321.81;5060399;28;19925;-83
2022/01/05 08:42:50;;;;;;;;;;;;;;;4.02;100.00;100329.78;5061638;28;19928;-83
2022/01/05 08:45:16;;;;;;;;;;;;;;;4.02;100.00;100344.53;5059260;28;19920;-84
2022/01/05 08:47:47;;;;;;;;;;;;;;;4.03;100.00;100334.19;5059336;28;20011;-85
2022/01/05 08:50:16;;;;;;;;;;;;;;;4.04;100.00;100327.28;5059578;28;19959;-85
2022/01/05 08:52:55;;;;;;;;;;;;;;;4.02;100.00;100342.81;5058223;28;19982;-85
2022/01/05 08:55:27;;;;;;;;;;;;;;;4.01;100.00;100337.53;5060124;28;19928;-81
2022/01/05 08:57:53;;;;;;;;;;;;;;;4.04;100.00;100349.03;5042202;28;19929;-80
2022/01/05 09:00:18;;;;;;;;;;;;;;;4.06;100.00;100354.31;5059537;28;19974;-81
2022/01/05 09:02:47;;;;;;;;;;;;;;;4.11;100.00;100347.66;5059015;28;19960;-83
2022/01/05 09:05:14;;;;;;;;;;;;;;;4.12;100.00;100350.34;5059764;28;20131;-82
2022/01/05 09:07:43;;;;;;;;;;;;;;;4.08;100.00;100361.41;5057259;28;19921;-79
2022/01/05 09:10:09;;;;;;;;;;;;;;;4.12;100.00;100365.09;5057628;28;19921;-80
2022/01/05 09:12:35;;;;;;;;;;;;;;;4.16;100.00;100358.31;5038311;28;19932;-80
2022/01/05 09:15:00;;;;;;;;;;;;;;;4.17;100.00;100358.41;5054757;28;19963;-82
2022/01/05 09:17:26;;;;;;;;;;;;;;;4.18;100.00;100377.53;5056474;28;19916;-81
2022/01/05 09:19:51;;;;;;;;;;;;;;;4.17;100.00;100368.81;5056275;28;19929;-83
2022/01/05 09:22:17;;;;;;;;;;;;;;;4.17;100.00;100375.75;5054686;28;19932;-83
2022/01/05 09:24:42;;;;;;;;;;;;;;;4.15;100.00;100375.69;5062546;28;19917;-83
2022/01/05 09:27:08;;;;;;;;;;;;;;;4.18;100.00;100386.25;5056816;28;19929;-81
2022/01/05 09:29:33;;;;;;;;;;;;;;;4.20;100.00;100389.84;5055097;28;20023;-80
2022/01/05 09:32:05;;;;;;;;;;;;;;;4.23;100.00;100396.94;5057341;28;19928;-82
2022/01/05 09:34:30;;;;;;;;;;;;;;;4.23;100.00;100386.50;5057911;28;19920;-82
2022/01/05 09:37:00;;;;;;;;;;;;;;;4.30;100.00;100388.63;5058174;28;20050;-83
2022/01/05 09:42:11;;;;;;;;;;;;;;;4.40;100.00;100405.66;5057295;28;19973;-82
2022/01/05 09:44:41;;;;;;;;;;;;;;;4.44;100.00;100408.53;5056599;28;19920;-82
2022/01/05 09:47:23;;;;;;;;;;;;;;;4.51;100.00;100401.91;5056240;28;19950;-81
2022/01/05 09:49:53;;;;;;;;;;;;;;;4.59;100.00;100407.53;5055523;28;19921;-83
2022/01/05 09:52:18;;;;;;;;;;;;;;;4.64;100.00;100413.88;5056427;28;20349;-82
2022/01/05 09:54:45;;;;;;;;;;;;;;;4.64;100.00;100412.16;5056402;28;19927;-83
2022/01/05 09:57:10;;;;;;;;;;;;;;;4.66;100.00;100427.88;5055892;28;19917;-84
2022/01/05 09:59:36;;;;;;;;;;;;;;;4.71;100.00;100433.34;5055915;28;19983;-82
2022/01/05 10:02:05;;;;;;;;;;;;;;;4.72;100.00;100438.66;5056170;28;20372;-83
2022/01/05 10:04:31;;;;;;;;;;;;;;;4.72;100.00;100448.19;5055574;28;19979;-82
2022/01/05 10:06:56;;;;;;;;;;;;;;;4.66;100.00;100452.28;5056576;28;19921;-80
2022/01/05 10:09:22;;;;;;;;;;;;;;;4.62;100.00;100454.63;5055550;28;19927;-83
2022/01/05 10:11:47;;;;;;;;;;;;;;;4.63;100.00;100453.81;5055501;28;20371;-81
2022/01/05 10:14:16;;;;;;;;;;;;;;;4.63;100.00;100457.31;5056995;28;19920;-83
2022/01/05 10:16:43;;;;;;;;;;;;;;;4.75;100.00;100453.56;5057790;28;19921;-81
2022/01/05 10:19:21;;;;;;;;;;;;;;;4.82;100.00;100460.91;5056186;28;19940;-83
2022/01/05 10:21:46;;;;;;;;;;;;;;;4.83;100.00;100447.03;5055134;28;20392;-83
2022/01/05 10:24:11;;;;;;;;;;;;;;;4.84;100.00;100462.78;5055200;28;19994;-80
2022/01/05 10:26:39;;;;;;;;;;;;;;;4.86;100.00;100470.69;5055289;28;19921;-83
2022/01/05 10:29:05;;;;;;;;;;;;;;;4.86;100.00;100460.25;5054495;28;20012;-84
2022/01/05 10:31:32;;;;;;;;;;;;;;;4.84;100.00;100473.22;5056521;28;20365;-83
2022/01/05 10:34:13;;;;;;;;;;;;;;;4.82;100.00;100480.06;5057026;28;19982;-81
2022/01/05 10:36:46;;;;;;;;;;;;;;;4.81;100.00;100482.59;5056299;28;19956;-81
2022/01/05 10:39:11;;;;;;;;;;;;;;;4.81;100.00;100499.13;5050900;28;19967;-82
2022/01/05 10:41:37;;;;;;;;;;;;;;;4.83;100.00;100501.81;5056814;28;19920;-82
2022/01/05 10:44:07;;;;;;;;;;;;;;;4.83;100.00;100507.03;5058414;28;19924;-82
2022/01/05 10:46:37;;;;;;;;;;;;;;;4.77;100.00;100518.06;5056671;28;19927;-81
2022/01/05 10:49:04;;;;;;;;;;;;;;;4.77;100.00;100522.38;5054004;28;19924;-83
2022/01/05 10:51:30;;;;;;;;;;;;;;;4.73;100.00;100520.41;5057417;28;19921;-82
2022/01/05 10:54:12;;;;;;;;;;;;;;;4.75;100.00;100517.06;5055254;28;19924;-82
2022/01/05 10:56:38;;;;;;;;;;;;;;;4.79;100.00;100531.19;5054965;28;19932;-83
2022/01/05 10:59:03;;;;;;;;;;;;;;;4.82;100.00;100516.59;5054953;28;19921;-85
2022/01/05 11:01:30;;;;;;;;;;;;;;;4.91;100.00;100525.72;5054871;28;19925;-83
2022/01/05 11:03:56;;;;;;;;;;;;;;;4.90;100.00;100527.44;5070604;28;20004;-80
2022/01/05 11:06:21;;;;;;;;;;;;;;;4.88;100.00;100534.28;5037382;28;19948;-84
2022/01/05 11:08:47;;;;;;;;;;;;;;;4.88;100.00;100539.50;5056064;28;19921;-83
2022/01/05 11:11:31;;;;;;;;;;;;;;;4.94;100.00;100546.75;5052885;28;19932;-83
2022/01/05 11:13:58;;;;;;;;;;;;;;;4.92;100.00;100544.06;5052810;28;19924;-83
2022/01/05 11:16:25;;;;;;;;;;;;;;;4.90;100.00;100537.88;5051787;28;20203;-81
2022/01/05 11:19:10;;;;;;;;;;;;;;;4.93;100.00;100544.97;5053323;28;19921;-81
2022/01/05 11:21:37;;;;;;;;;;;;;;;4.95;100.00;100539.00;5053321;28;19951;-82
2022/01/05 11:24:03;;;;;;;;;;;;;;;4.92;100.00;100536.22;5053209;28;19971;-83
2022/01/05 11:26:28;;;;;;;;;;;;;;;4.91;100.00;100537.06;5054685;28;20316;-83
2022/01/05 11:28:53;;;;;;;;;;;;;;;4.97;100.00;100526.03;5053993;28;19925;-84
2022/01/05 11:31:18;;;;;;;;;;;;;;;5.03;100.00;100531.59;5054377;28;19921;-88
2022/01/05 11:33:45;;;;;;;;;;;;;;;5.08;100.00;100537.06;5055655;28;19920;-84
2022/01/05 11:36:10;;;;;;;;;;;;;;;5.17;100.00;100530.63;5054386;28;20402;-84
2022/01/05 11:38:36;;;;;;;;;;;;;;;5.13;100.00;100539.09;5054772;28;19921;-82
2022/01/05 11:41:02;;;;;;;;;;;;;;;5.15;100.00;100550.50;5060523;28;20281;-84
2022/01/05 11:43:39;;;;;;;;;;;;;;;5.13;100.00;100553.88;5058838;28;19928;-83
2022/01/05 11:46:12;;;;;;;;;;;;;;;5.06;100.00;100570.91;5050513;28;20374;-85
2022/01/05 11:48:40;;;;;;;;;;;;;;;5.04;100.00;100588.19;5054193;28;19921;-84
2022/01/05 11:51:05;;;;;;;;;;;;;;;5.01;100.00;100577.59;5053672;28;19928;-85
2022/01/05 11:53:43;;;;;;;;;;;;;;;5.02;100.00;100587.22;5055243;28;19921;-88
2022/01/05 11:56:14;;;;;;;;;;;;;;;5.07;100.00;100584.88;5055361;28;20387;-86
2022/01/05 11:59:02;;;;;;;;;;;;;;;5.08;100.00;100587.56;5054167;28;19920;-88
2022/01/05 12:01:32;;;;;;;;;;;;;;;5.07;100.00;100604.03;5056811;28;20002;-89
2022/01/05 12:03:57;;;;;;;;;;;;;;;5.11;100.00;100606.00;5052968;28;19928;-83
2022/01/05 12:06:30;;;;;;;;;;;;;;;5.21;100.00;100604.78;5055315;28;19916;-78
2022/01/05 12:08:56;;;;;;;;;;;;;;;5.31;100.00;100607.03;5053268;28;19924;-80
2022/01/05 12:11:31;;;;;;;;;;;;;;;5.34;100.00;100617.63;5052989;28;20293;-83
2022/01/05 12:14:16;;;;;;;;;;;;;;;5.26;100.00;100599.78;5053409;28;19920;-81
2022/01/05 12:17:03;;;;;;;;;;;;;;;5.33;100.00;100608.03;5053278;28;19916;-84
2022/01/05 12:19:46;;;;;;;;;;;;;;;5.32;100.00;100624.50;5055015;28;19935;-83
2022/01/05 12:22:36;;;;;;;;;;;;;;;5.27;100.00;100620.75;5053950;28;19927;-84
2022/01/05 12:25:04;;;;;;;;;;;;;;;5.27;100.00;100631.22;5047889;28;20361;-79
2022/01/05 12:27:32;;;;;;;;;;;;;;;5.20;100.00;100619.53;5054328;28;20307;-82
2022/01/05 12:30:20;;;;;;;;;;;;;;;5.17;100.00;100618.47;5055058;28;19923;-82
2022/01/05 12:32:59;;;;;;;;;;;;;;;5.24;100.00;100624.94;5052920;28;19921;-82
2022/01/05 12:35:27;;;;;;;;;;;;;;;5.23;100.00;100626.63;5054578;28;19948;-86
2022/01/05 12:38:04;;;;;;;;;;;;;;;5.31;100.00;100621.81;5053435;28;20175;-83
2022/01/05 12:40:29;;;;;;;;;;;;;;;5.42;100.00;100614.56;5056886;28;19997;-83
2022/01/05 12:43:17;;;;;;;;;;;;;;;5.52;100.00;100627.28;5055302;28;20635;-88